Time;durP1;ratioP1;P1;durP2;ratioP2;P2;SDS_P1;SDS_P2;PMS_P1;PMS_P2;Temp;Humidity;BMP_temperature;BMP_pressure;BME280_temperature;BME280_humidity;BME280_pressure;Samples;Min_cycle;Max_cycle;Signal;HPM_P1;HPM_P2
2021/01/03 00:02:08;;;;;;;99.67;52.90;;;;;;;1.93;88.01;100516.03;1758885;80;25651;-49
2021/01/03 00:04:42;;;;;;;105.25;53.98;;;;;;;1.92;88.03;100512.27;1745695;81;25709;-60
2021/01/03 00:07:10;;;;;;;109.20;54.45;;;;;;;1.91;87.98;100498.13;1758767;80;26125;-45
2021/01/03 00:09:38;;;;;;;105.78;53.65;;;;;;;1.91;88.04;100495.97;1758811;80;25760;-48
2021/01/03 00:12:06;;;;;;;114.82;54.55;;;;;;;1.89;88.00;100494.91;1758710;81;25723;-59
2021/01/03 00:14:34;;;;;;;105.63;52.98;;;;;;;1.86;87.99;100496.73;1730447;82;26306;-64
2021/01/03 00:17:18;;;;;;;111.00;53.65;;;;;;;1.85;88.02;100505.77;1756344;80;27641;-55
2021/01/03 00:19:45;;;;;;;104.05;53.20;;;;;;;1.84;88.06;100500.98;1758866;81;25670;-58
2021/01/03 00:22:13;;;;;;;110.90;55.00;;;;;;;1.83;88.06;100498.02;1758868;80;25710;-63
2021/01/03 00:24:41;;;;;;;101.25;54.03;;;;;;;1.82;88.06;100501.75;1758775;81;25709;-63
2021/01/03 00:27:09;;;;;;;107.90;52.73;;;;;;;1.82;88.08;100508.42;1726146;82;25808;-62
2021/01/03 00:29:36;;;;;;;110.85;54.27;;;;;;;1.82;88.07;100506.26;1739102;82;25798;-63
2021/01/03 00:32:04;;;;;;;100.78;51.42;;;;;;;1.79;88.04;100499.56;1758620;81;25754;-62
2021/01/03 00:34:32;;;;;;;109.05;53.92;;;;;;;1.78;88.05;100499.27;1762772;80;25812;-54
2021/01/03 00:37:00;;;;;;;103.07;52.38;;;;;;;1.78;88.02;100502.48;1764719;80;25821;-63
2021/01/03 00:39:27;;;;;;;105.05;52.60;;;;;;;1.77;88.00;100511.52;1726321;83;25688;-42
2021/01/03 00:41:54;;;;;;;114.10;56.28;;;;;;;1.75;87.96;100509.09;1740589;82;25729;-60
2021/01/03 00:44:21;;;;;;;110.12;54.53;;;;;;;1.72;87.96;100501.61;1740200;82;25777;-60
2021/01/03 00:46:48;;;;;;;109.67;53.08;;;;;;;1.73;88.08;100514.41;1739809;82;25764;-63
2021/01/03 00:49:15;;;;;;;105.85;54.20;;;;;;;1.71;88.08;100510.65;1739904;82;25682;-64
2021/01/03 00:51:42;;;;;;;104.43;53.33;;;;;;;1.71;88.10;100517.31;1739972;82;25659;-65
2021/01/03 00:54:09;;;;;;;109.45;53.48;;;;;;;1.69;88.09;100510.09;1714259;82;27091;-62
2021/01/03 00:56:36;;;;;;;107.27;52.40;;;;;;;1.69;88.11;100516.76;1739772;82;26371;-58
2021/01/03 00:59:04;;;;;;;109.65;53.95;;;;;;;1.68;88.15;100517.27;1739802;82;25778;-47
2021/01/03 01:01:30;;;;;;;106.83;53.28;;;;;;;1.67;88.16;100517.53;1739772;82;25707;-60
2021/01/03 01:03:57;;;;;;;109.37;53.52;;;;;;;1.66;88.20;100515.37;1714250;82;25715;-61
2021/01/03 01:06:24;;;;;;;108.47;53.60;;;;;;;1.66;88.21;100520.70;1739893;82;25788;-63
2021/01/03 01:08:51;;;;;;;110.20;53.80;;;;;;;1.66;88.31;100513.23;1739756;82;25769;-61
2021/01/03 01:11:18;;;;;;;100.12;53.73;;;;;;;1.67;88.38;100510.87;1739959;82;26366;-60
2021/01/03 01:13:45;;;;;;;102.95;53.08;;;;;;;1.67;88.38;100510.33;1739834;82;25607;-62
2021/01/03 01:16:12;;;;;;;107.58;53.75;;;;;;;1.66;88.40;100494.03;1739882;82;26424;-52
2021/01/03 01:18:39;;;;;;;105.70;54.18;;;;;;;1.67;88.38;100490.87;1739947;82;25718;-43
2021/01/03 01:21:07;;;;;;;106.15;54.00;;;;;;;1.68;88.42;100497.80;1739815;82;25719;-53
2021/01/03 01:23:35;;;;;;;102.40;52.50;;;;;;;1.68;88.35;100501.80;1739967;82;26046;-58
2021/01/03 01:26:02;;;;;;;111.10;54.70;;;;;;;1.68;88.45;100492.47;1739895;82;25676;-54
2021/01/03 01:28:28;;;;;;;105.78;53.13;;;;;;;1.70;88.50;100490.89;1739968;82;25751;-59
2021/01/03 01:30:57;;;;;;;102.90;52.88;;;;;;;1.69;88.50;100486.09;1740032;82;26156;-60
2021/01/03 01:33:24;;;;;;;102.35;52.53;;;;;;;1.68;88.34;100487.13;1739377;82;26248;-58
2021/01/03 01:35:52;;;;;;;106.30;53.70;;;;;;;1.65;88.25;100485.78;1735917;82;25770;-52
2021/01/03 01:38:19;;;;;;;108.12;53.45;;;;;;;1.63;88.14;100487.05;1735957;82;25714;-43
2021/01/03 01:40:45;;;;;;;98.37;53.20;;;;;;;1.60;88.11;100487.03;1735934;82;25721;-54
2021/01/03 01:43:16;;;;;;;97.40;50.92;;;;;;;1.57;87.98;100482.19;1735908;82;25761;-46
2021/01/03 01:45:46;;;;;;;105.27;53.85;;;;;;;1.53;87.97;100488.23;1706459;82;25686;-54
2021/01/03 01:48:26;;;;;;;104.15;52.43;;;;;;;1.49;87.92;100491.38;1735969;82;25722;-61
2021/01/03 01:51:03;;;;;;;104.50;52.83;;;;;;;1.46;87.86;100489.73;1735923;82;25726;-64
2021/01/03 01:53:51;;;;;;;105.50;52.30;;;;;;;1.41;87.84;100483.00;1706868;82;25727;-50
2021/01/03 01:56:38;;;;;;;105.30;49.80;;;;;;;1.38;87.80;100478.14;1736105;82;25938;-49
2021/01/03 01:59:14;;;;;;;100.55;51.28;;;;;;;1.35;87.81;100478.66;1735670;82;25754;-61
2021/01/03 02:01:49;;;;;;;94.87;49.33;;;;;;;1.31;87.78;100484.97;1735464;82;26309;-43
2021/01/03 02:04:35;;;;;;;98.55;51.37;;;;;;;1.27;87.82;100477.19;1734767;82;25772;-49
2021/01/03 02:07:19;;;;;;;95.25;50.50;;;;;;;1.24;87.85;100482.49;1735893;82;25750;-58
2021/01/03 02:10:30;;;;;;;101.30;51.53;;;;;;;1.22;87.90;100480.56;1729700;82;25728;-58
2021/01/03 02:13:14;;;;;;;97.92;50.25;;;;;;;1.18;87.96;100480.78;1735595;82;26008;-63
2021/01/03 02:15:42;;;;;;;101.07;49.65;;;;;;;1.14;87.93;100477.50;1735800;82;25734;-59
2021/01/03 02:18:11;;;;;;;102.42;50.58;;;;;;;1.11;88.00;100488.13;1735937;82;25920;-52
2021/01/03 02:20:55;;;;;;;105.72;52.17;;;;;;;1.08;88.00;100478.75;1735936;82;25714;-63
2021/01/03 02:23:43;;;;;;;98.90;48.52;;;;;;;1.08;88.09;100484.08;1735520;82;26338;-58
2021/01/03 02:26:13;;;;;;;98.22;51.40;;;;;;;1.07;88.18;100480.31;1735982;82;25672;-42
2021/01/03 02:28:43;;;;;;;99.85;50.05;;;;;;;1.06;88.30;100474.19;1735846;82;25711;-60
2021/01/03 02:31:15;;;;;;;97.08;52.65;;;;;;;1.06;88.29;100475.52;1735948;82;26280;-59
2021/01/03 02:33:46;;;;;;;98.40;50.45;;;;;;;1.05;88.34;100475.23;1734551;82;25687;-61
2021/01/03 02:36:33;;;;;;;97.55;50.40;;;;;;;1.05;88.42;100473.09;1720490;83;26255;-61
2021/01/03 02:39:41;;;;;;;97.65;48.87;;;;;;;1.04;88.45;100468.30;1720554;83;25644;-51
2021/01/03 02:42:26;;;;;;;97.87;50.50;;;;;;;1.05;88.46;100467.77;1719722;83;25676;-63
2021/01/03 02:44:53;;;;;;;103.83;50.38;;;;;;;1.03;88.48;100466.67;1720547;82;25705;-46
2021/01/03 02:47:30;;;;;;;93.15;49.18;;;;;;;1.03;88.51;100461.88;1720524;83;25993;-50
2021/01/03 02:49:57;;;;;;;100.78;49.63;;;;;;;1.03;88.59;100458.68;1720175;83;25734;-59
2021/01/03 02:52:35;;;;;;;95.90;50.67;;;;;;;1.03;88.57;100458.68;1720365;83;25709;-62
2021/01/03 02:55:04;;;;;;;90.42;48.75;;;;;;;1.02;88.60;100454.92;1720405;82;25738;-60
2021/01/03 02:57:31;;;;;;;89.13;48.80;;;;;;;1.02;88.65;100457.08;1720811;83;25656;-55
2021/01/03 02:59:58;;;;;;;89.00;48.05;;;;;;;1.03;88.65;100457.88;1720550;83;25704;-51
2021/01/03 03:02:25;;;;;;;88.17;48.35;;;;;;;1.03;88.68;100456.55;1720529;83;26800;-60
2021/01/03 03:04:52;;;;;;;88.62;47.55;;;;;;;1.02;88.68;100447.77;1695316;83;25735;-49
2021/01/03 03:07:19;;;;;;;91.67;46.48;;;;;;;1.03;88.68;100454.69;1720446;83;25652;-54
2021/01/03 03:09:46;;;;;;;87.30;47.33;;;;;;;1.04;88.68;100451.48;1720378;82;25708;-48
2021/01/03 03:12:12;;;;;;;91.63;47.67;;;;;;;1.03;88.69;100437.37;1720617;82;25805;-44
2021/01/03 03:14:39;;;;;;;86.75;47.62;;;;;;;1.03;88.65;100435.24;1720426;83;27090;-62
2021/01/03 03:17:08;;;;;;;84.40;46.42;;;;;;;1.03;88.62;100433.37;1720352;82;26307;-44
2021/01/03 03:19:37;;;;;;;88.47;46.50;;;;;;;1.03;88.59;100432.05;1720437;82;25783;-45
2021/01/03 03:22:04;;;;;;;88.30;47.77;;;;;;;1.03;88.57;100431.25;1720872;83;26336;-62
2021/01/03 03:24:31;;;;;;;85.72;45.45;;;;;;;1.02;88.54;100431.78;1720452;83;25738;-55
2021/01/03 03:27:01;;;;;;;89.10;45.48;;;;;;;1.02;88.53;100422.95;1720501;83;26259;-61
2021/01/03 03:29:29;;;;;;;83.47;45.28;;;;;;;1.02;88.53;100427.78;1720430;82;26328;-57
2021/01/03 03:31:57;;;;;;;87.82;45.20;;;;;;;1.02;88.58;100418.96;1720407;83;25712;-61
2021/01/03 03:34:26;;;;;;;83.52;47.67;;;;;;;1.03;88.53;100420.59;1723718;82;25624;-61
2021/01/03 03:36:55;;;;;;;93.10;46.20;;;;;;;1.02;88.54;100422.95;1735791;82;26274;-60
2021/01/03 03:39:25;;;;;;;86.25;45.03;;;;;;;1.02;88.54;100425.62;1735842;82;25983;-61
2021/01/03 03:41:59;;;;;;;84.30;46.53;;;;;;;1.00;88.54;100421.86;1735873;82;25823;-62
2021/01/03 03:44:29;;;;;;;84.10;44.08;;;;;;;1.01;88.54;100428.82;1735768;82;25711;-45
2021/01/03 03:47:03;;;;;;;77.97;45.20;;;;;;;1.01;88.55;100430.69;1736005;82;25630;-58
2021/01/03 03:49:32;;;;;;;80.30;43.13;;;;;;;1.00;88.55;100429.86;1735878;82;25719;-53
2021/01/03 03:52:01;;;;;;;82.42;44.48;;;;;;;1.00;88.57;100425.86;1735890;82;25995;-46
2021/01/03 03:54:28;;;;;;;83.12;44.77;;;;;;;0.98;88.58;100423.97;1735605;82;25750;-55
2021/01/03 03:57:02;;;;;;;86.25;45.58;;;;;;;1.00;88.58;100423.20;1735738;82;25247;-61
2021/01/03 03:59:30;;;;;;;82.42;44.85;;;;;;;1.02;88.60;100422.95;1735703;82;25834;-59
2021/01/03 04:01:57;;;;;;;79.25;42.30;;;;;;;1.01;88.61;100417.36;1735773;82;25816;-59
2021/01/03 04:04:26;;;;;;;83.30;43.63;;;;;;;1.02;88.65;100413.13;1735703;82;26971;-47
2021/01/03 04:06:53;;;;;;;82.33;42.75;;;;;;;1.02;88.65;100418.45;1735624;82;25694;-60
2021/01/03 04:09:20;;;;;;;77.55;44.30;;;;;;;1.03;88.62;100417.39;1735873;82;25690;-60
2021/01/03 04:11:50;;;;;;;73.40;43.38;;;;;;;1.03;88.67;100413.93;1735715;82;25837;-52
2021/01/03 04:14:21;;;;;;;79.87;44.70;;;;;;;1.04;88.73;100414.19;1735812;82;26280;-61
2021/01/03 04:16:52;;;;;;;79.00;44.00;;;;;;;1.03;88.72;100416.06;1735875;82;26758;-55
2021/01/03 04:19:19;;;;;;;80.00;42.80;;;;;;;1.04;88.76;100419.02;1734653;82;25727;-48
2021/01/03 04:21:56;;;;;;;80.17;42.75;;;;;;;1.04;88.80;100409.69;1735888;82;25957;-64
2021/01/03 04:24:24;;;;;;;78.57;43.78;;;;;;;1.06;88.83;100401.46;1734809;82;25758;-61
2021/01/03 04:26:55;;;;;;;92.08;44.70;;;;;;;1.07;88.86;100395.06;1736001;82;25762;-45
2021/01/03 04:29:22;;;;;;;76.85;41.35;;;;;;;1.07;88.85;100393.23;1735963;82;25788;-44
2021/01/03 04:32:01;;;;;;;80.38;42.88;;;;;;;1.07;88.83;100391.06;1735904;82;25796;-60
2021/01/03 04:34:28;;;;;;;77.17;41.00;;;;;;;1.07;88.85;100390.56;1735974;82;25616;-42
2021/01/03 04:36:57;;;;;;;73.70;41.77;;;;;;;1.07;88.89;100385.23;1735871;82;25651;-62
2021/01/03 04:39:26;;;;;;;73.00;43.27;;;;;;;1.08;88.91;100388.16;1736177;82;25635;-62
2021/01/03 04:42:01;;;;;;;73.67;40.95;;;;;;;1.09;88.97;100382.30;1736009;82;25802;-62
2021/01/03 04:44:36;;;;;;;67.78;40.55;;;;;;;1.11;89.00;100386.89;1734254;82;26304;-45
2021/01/03 04:47:31;;;;;;;67.42;38.98;;;;;;;1.13;88.99;100400.77;1734371;82;25777;-62
2021/01/03 04:50:29;;;;;;;70.05;40.90;;;;;;;1.11;89.02;100393.02;1735947;82;25602;-53
2021/01/03 04:53:13;;;;;;;70.00;39.15;;;;;;;1.14;89.05;100396.23;1735979;82;25726;-64
2021/01/03 04:55:48;;;;;;;72.95;38.25;;;;;;;1.15;89.05;100397.86;1735805;82;25844;-60
2021/01/03 04:58:36;;;;;;;63.98;37.55;;;;;;;1.16;89.08;100402.13;1735847;82;25631;-55
2021/01/03 05:01:26;;;;;;;67.40;38.33;;;;;;;1.16;89.08;100399.45;1735852;82;25770;-61
2021/01/03 05:04:31;;;;;;;66.80;37.53;;;;;;;1.15;89.06;100399.19;1735790;82;25730;-59
2021/01/03 05:07:02;;;;;;;66.42;39.00;;;;;;;1.16;89.07;100402.13;1735894;82;25678;-62
2021/01/03 05:09:29;;;;;;;69.90;39.10;;;;;;;1.16;89.10;100404.78;1735852;82;26773;-57
2021/01/03 05:12:08;;;;;;;64.82;38.35;;;;;;;1.16;89.10;100408.78;1735788;82;25703;-63
2021/01/03 05:14:44;;;;;;;61.73;35.85;;;;;;;1.17;89.12;100403.75;1736044;82;25770;-61
2021/01/03 05:17:11;;;;;;;63.83;37.23;;;;;;;1.17;89.11;100411.74;1735126;82;26349;-46
2021/01/03 05:19:39;;;;;;;70.52;38.92;;;;;;;1.17;89.09;100408.54;1735950;82;25647;-61
2021/01/03 05:22:06;;;;;;;67.30;36.83;;;;;;;1.18;89.09;100418.16;1736018;82;26462;-43
2021/01/03 05:24:43;;;;;;;62.48;35.63;;;;;;;1.17;89.05;100417.07;1735695;82;26026;-60
2021/01/03 05:27:20;;;;;;;63.58;36.70;;;;;;;1.16;89.03;100410.94;1736040;82;25690;-55
2021/01/03 05:29:48;;;;;;;66.15;36.75;;;;;;;1.16;89.02;100408.78;1735930;82;26408;-60
2021/01/03 05:32:33;;;;;;;59.50;35.00;;;;;;;1.16;89.01;100416.27;1735922;82;26447;-61
2021/01/03 05:35:00;;;;;;;63.98;34.90;;;;;;;1.16;88.94;100418.11;1733122;82;25840;-56
2021/01/03 05:37:31;;;;;;;62.43;35.23;;;;;;;1.15;88.89;100419.17;1720546;82;25676;-64
2021/01/03 05:39:58;;;;;;;63.15;38.13;;;;;;;1.13;88.85;100420.75;1720475;83;26352;-62
2021/01/03 05:42:38;;;;;;;59.42;34.38;;;;;;;1.09;88.76;100412.44;1720526;82;26334;-63
2021/01/03 05:45:10;;;;;;;;;;;;;;;1.09;88.80;100418.27;1723056;83;25821;-63
2021/01/03 05:47:57;;;;;;;55.23;33.20;;;;;;;1.07;88.79;100417.20;1720530;82;25989;-63
2021/01/03 05:50:32;;;;;;;63.68;37.17;;;;;;;1.06;88.80;100418.78;1720462;82;25830;-54
2021/01/03 05:53:10;;;;;;;61.85;36.60;;;;;;;1.04;88.79;100420.34;1720570;83;25731;-50
2021/01/03 05:55:38;;;;;;;69.03;36.83;;;;;;;1.01;88.74;100408.84;1695864;83;25694;-62
2021/01/03 05:58:17;;;;;;;61.08;36.45;;;;;;;1.01;88.77;100410.70;1720703;82;26328;-61
2021/01/03 06:00:45;;;;;;;64.32;36.90;;;;;;;0.99;88.75;100414.94;1720554;83;25752;-46
2021/01/03 06:03:29;;;;;;;60.03;35.90;;;;;;;0.97;88.73;100413.05;1720510;82;25863;-42
2021/01/03 06:06:16;;;;;;;63.23;36.55;;;;;;;0.94;88.69;100414.86;1720176;83;26327;-61
2021/01/03 06:08:43;;;;;;;61.53;36.08;;;;;;;0.92;88.69;100417.77;1720608;83;25705;-46
2021/01/03 06:11:15;;;;;;;60.48;36.40;;;;;;;0.90;88.74;100408.38;1720606;83;25717;-61
2021/01/03 06:13:47;;;;;;;63.17;36.30;;;;;;;0.88;88.78;100400.63;1720583;83;26441;-60
2021/01/03 06:16:15;;;;;;;67.67;38.13;;;;;;;0.88;88.82;100400.63;1719599;83;25979;-59
2021/01/03 06:18:50;;;;;;;61.48;36.50;;;;;;;0.88;88.86;100406.49;1720490;83;25839;-44
2021/01/03 06:21:25;;;;;;;67.85;37.25;;;;;;;0.86;88.86;100405.93;1720532;83;25752;-58
2021/01/03 06:24:09;;;;;;;60.65;37.23;;;;;;;0.84;88.92;100406.17;1720206;83;25817;-59
2021/01/03 06:26:44;;;;;;;65.22;36.90;;;;;;;0.84;89.00;100400.84;1720433;83;26938;-49
2021/01/03 06:29:37;;;;;;;70.22;36.75;;;;;;;0.84;89.05;100412.83;1719919;83;25694;-55
2021/01/03 06:32:30;;;;;;;66.55;36.95;;;;;;;0.84;89.14;100420.02;1720491;83;25671;-43
2021/01/03 06:35:11;;;;;;;68.02;36.98;;;;;;;0.82;89.17;100422.92;1720300;82;25770;-51
2021/01/03 06:37:44;;;;;;;63.42;36.38;;;;;;;0.85;89.29;100416.29;1720244;83;25726;-57
2021/01/03 06:40:34;;;;;;;66.57;36.90;;;;;;;0.86;89.33;100416.58;1719599;83;26924;-46
2021/01/03 06:43:38;;;;;;;68.42;37.67;;;;;;;0.87;89.29;100417.68;1720373;83;25831;-45
2021/01/03 06:46:45;;;;;;;67.97;36.70;;;;;;;0.86;89.37;100421.38;1720469;82;25672;-50
2021/01/03 06:49:42;;;;;;;69.30;36.93;;;;;;;0.88;89.43;100411.28;1720496;83;25727;-52
2021/01/03 06:52:46;;;;;;;66.62;36.68;;;;;;;0.90;89.44;100405.72;1695507;83;26397;-58
2021/01/03 06:55:30;;;;;;;61.35;35.58;;;;;;;0.91;89.41;100406.02;1720424;82;25732;-60
2021/01/03 06:58:20;;;;;;;67.37;38.53;;;;;;;0.92;89.44;100413.77;1720361;83;25611;-59
2021/01/03 07:00:52;;;;;;;;;;;;;;;0.93;89.46;100404.70;1723043;83;25734;-59
2021/01/03 07:03:29;;;;;;;63.63;34.08;;;;;;;0.95;89.48;100403.67;1720240;83;25807;-42
2021/01/03 07:06:04;;;;;;;65.65;36.77;;;;;;;0.95;89.48;100405.00;1695290;83;25757;-56
2021/01/03 07:08:41;;;;;;;63.38;36.25;;;;;;;0.96;89.50;100399.97;1720532;83;25741;-48
2021/01/03 07:11:48;;;;;;;62.70;36.15;;;;;;;0.97;89.51;100402.90;1719971;83;25988;-58
2021/01/03 07:14:28;;;;;;;59.08;35.45;;;;;;;0.97;89.49;100400.23;1720402;83;26402;-58
2021/01/03 07:17:08;;;;;;;64.53;34.75;;;;;;;0.98;89.46;100392.54;1720504;83;26433;-57
2021/01/03 07:19:57;;;;;;;64.67;35.08;;;;;;;0.98;89.45;100388.55;1720476;83;25747;-56
2021/01/03 07:22:50;;;;;;;58.33;33.30;;;;;;;0.98;89.43;100401.33;1719953;83;25935;-49
2021/01/03 07:25:31;;;;;;;67.27;36.50;;;;;;;0.98;89.43;100401.33;1720291;83;25693;-58
2021/01/03 07:28:13;;;;;;;63.65;35.10;;;;;;;0.97;89.43;100405.56;1719385;83;25636;-47
2021/01/03 07:31:00;;;;;;;59.53;34.43;;;;;;;0.98;89.48;100409.85;1720164;83;25862;-46
2021/01/03 07:33:41;;;;;;;58.90;34.33;;;;;;;0.98;89.52;100424.50;1705438;83;25732;-58
2021/01/03 07:36:45;;;;;;;56.92;34.48;;;;;;;0.99;89.59;100432.25;1725118;82;26009;-58
2021/01/03 07:39:27;;;;;;;59.65;33.35;;;;;;;1.00;89.60;100430.39;1730036;82;26302;-49
2021/01/03 07:42:16;;;;;;;62.10;34.60;;;;;;;1.01;89.63;100436.02;1735806;82;25791;-52
2021/01/03 07:44:45;;;;;;;56.55;34.30;;;;;;;1.01;89.62;100439.47;1731956;82;26336;-47
2021/01/03 07:47:34;;;;;;;61.30;34.23;;;;;;;1.04;89.70;100442.99;1735681;82;25698;-46
2021/01/03 07:50:32;;;;;;;64.20;35.37;;;;;;;1.06;89.70;100445.42;1736124;82;25823;-52
2021/01/03 07:53:29;;;;;;;60.40;35.43;;;;;;;1.09;89.73;100444.41;1735633;82;25766;-53
2021/01/03 07:56:18;;;;;;;56.88;33.42;;;;;;;1.12;89.73;100435.11;1735685;82;26310;-59
2021/01/03 07:58:50;;;;;;;64.60;34.53;;;;;;;1.14;89.74;100437.00;1736166;82;25907;-57
2021/01/03 08:01:18;;;;;;;62.25;36.40;;;;;;;1.16;89.72;100437.59;1735906;82;26404;-51
2021/01/03 08:03:45;;;;;;;62.55;35.75;;;;;;;1.18;89.73;100430.69;1735857;82;26946;-58
2021/01/03 08:06:13;;;;;;;62.10;34.60;;;;;;;1.21;89.73;100428.84;1735817;82;25808;-57
2021/01/03 08:08:41;;;;;;;59.13;34.60;;;;;;;1.21;89.70;100430.17;1735902;82;25865;-57
2021/01/03 08:11:35;;;;;;;58.15;34.73;;;;;;;1.26;89.74;100418.27;1735914;82;25924;-54
2021/01/03 08:14:06;;;;;;;55.03;33.65;;;;;;;1.27;89.76;100417.22;1735924;82;25690;-48
2021/01/03 08:16:35;;;;;;;57.25;33.30;;;;;;;1.30;89.70;100417.54;1735906;82;25729;-50
2021/01/03 08:19:06;;;;;;;60.60;35.23;;;;;;;1.33;89.70;100422.09;1734758;80;26077;-58
2021/01/03 08:21:40;;;;;;;61.75;34.25;;;;;;;1.35;89.67;100414.69;1720058;82;25718;-59
2021/01/03 08:24:15;;;;;;;60.17;33.83;;;;;;;1.38;89.67;100418.17;1735028;82;25949;-56
2021/01/03 08:27:03;;;;;;;55.60;34.03;;;;;;;1.41;89.66;100423.02;1736673;82;25813;-59
2021/01/03 08:29:59;;;;;;;56.65;32.75;;;;;;;1.41;89.58;100429.14;1756005;81;25796;-45
2021/01/03 08:32:29;;;;;;;58.75;34.00;;;;;;;1.43;89.57;100427.07;1756459;80;26133;-58
2021/01/03 08:35:07;;;;;;;56.83;32.63;;;;;;;1.46;89.57;100429.75;1756452;81;26457;-60
2021/01/03 08:37:42;;;;;;;57.05;32.67;;;;;;;1.48;89.53;100424.98;1761113;80;25908;-59
2021/01/03 08:40:25;;;;;;;54.83;31.85;;;;;;;1.46;89.45;100431.09;1757884;81;26118;-54
2021/01/03 08:43:13;;;;;;;55.25;33.25;;;;;;;1.48;89.50;100428.98;1732381;81;26854;-61
2021/01/03 08:45:42;;;;;;;55.40;32.15;;;;;;;1.47;89.42;100446.84;1732008;82;26058;-51
2021/01/03 08:48:13;;;;;;;56.15;33.58;;;;;;;1.48;89.45;100445.80;1732406;82;25475;-49
2021/01/03 08:50:41;;;;;;;54.58;33.90;;;;;;;1.51;89.50;100450.36;1732102;82;25825;-55
2021/01/03 08:53:22;;;;;;;55.65;33.38;;;;;;;1.53;89.53;100448.25;1732213;82;25742;-56
2021/01/03 08:55:50;;;;;;;56.05;34.43;;;;;;;1.57;89.68;100452.05;1732172;82;27234;-60
2021/01/03 08:58:19;;;;;;;56.88;34.15;;;;;;;1.60;89.59;100455.03;1731858;82;26460;-56
2021/01/03 09:00:54;;;;;;;55.30;35.15;;;;;;;1.63;89.60;100448.39;1747896;81;25857;-54
2021/01/03 09:03:22;;;;;;;58.63;34.03;;;;;;;1.70;89.82;100451.69;1753121;81;26439;-49
2021/01/03 09:05:51;;;;;;;55.15;33.48;;;;;;;1.75;89.79;100449.63;1762705;80;25983;-47
2021/01/03 09:08:35;;;;;;;55.38;34.45;;;;;;;1.78;89.69;100452.60;1754868;81;25716;-56
2021/01/03 09:11:28;;;;;;;53.42;34.15;;;;;;;1.80;89.69;100449.16;1738580;82;25883;-59
2021/01/03 09:14:23;;;;;;;56.90;34.55;;;;;;;1.84;89.57;100443.63;1738754;82;26125;-58
2021/01/03 09:17:09;;;;;;;59.70;35.15;;;;;;;1.86;89.52;100434.84;1738837;82;26008;-56
2021/01/03 09:20:07;;;;;;;56.55;33.30;;;;;;;1.90;89.53;100437.02;1734585;82;27768;-54
2021/01/03 09:22:40;;;;;;;55.05;32.93;;;;;;;1.91;89.38;100431.95;1735631;82;26355;-57
2021/01/03 09:25:15;;;;;;;57.10;33.80;;;;;;;1.91;89.33;100436.78;1735705;82;25715;-56
2021/01/03 09:27:42;;;;;;;52.48;32.70;;;;;;;1.93;89.42;100434.66;1735449;82;25664;-56
2021/01/03 09:30:26;;;;;;;57.38;32.58;;;;;;;1.96;89.41;100435.51;1735544;82;25714;-50
2021/01/03 09:33:23;;;;;;;51.60;32.23;;;;;;;1.98;89.34;100428.05;1735353;82;25871;-53
2021/01/03 09:36:35;;;;;;;55.05;31.90;;;;;;;2.02;89.37;100420.36;1735680;82;25731;-57
2021/01/03 09:39:13;;;;;;;50.35;31.52;;;;;;;2.03;89.31;100409.98;1735537;82;25775;-55
2021/01/03 09:42:26;;;;;;;55.80;32.78;;;;;;;2.04;89.24;100400.89;1735074;82;25917;-49
2021/01/03 09:45:16;;;;;;;57.62;33.35;;;;;;;2.04;89.13;100393.72;1734771;82;25850;-57
2021/01/03 09:47:46;;;;;;;55.10;32.10;;;;;;;2.07;89.24;100397.73;1735544;82;25807;-57
2021/01/03 09:50:25;;;;;;;;;;;;;;;2.10;89.28;100397.78;1734956;81;32895;-61
2021/01/03 09:53:15;;;;;;;54.37;32.20;;;;;;;2.12;89.19;100405.00;1751092;81;26653;-59
2021/01/03 09:56:02;;;;;;;55.95;32.40;;;;;;;2.12;89.17;100403.13;1730341;81;25550;-60
2021/01/03 09:58:41;;;;;;;55.83;33.78;;;;;;;2.14;89.10;100404.22;1730636;81;25930;-58
2021/01/03 10:01:24;;;;;;;59.42;33.88;;;;;;;2.13;89.14;100401.26;1752021;81;25780;-59
2021/01/03 10:03:51;;;;;;;51.13;32.38;;;;;;;2.15;89.14;100399.97;1759992;81;26345;-59
2021/01/03 10:06:31;;;;;;;56.02;32.23;;;;;;;2.18;89.26;100391.97;1760873;81;25850;-63
2021/01/03 10:09:29;;;;;;;52.10;31.27;;;;;;;2.22;89.36;100397.91;1751871;81;26345;-64
2021/01/03 10:11:56;;;;;;;56.42;33.63;;;;;;;2.27;89.33;100395.03;1760651;81;25874;-60
2021/01/03 10:14:33;;;;;;;52.00;32.67;;;;;;;2.31;89.37;100403.59;1760644;81;25655;-66
2021/01/03 10:17:20;;;;;;;51.80;32.53;;;;;;;2.32;89.19;100385.73;1760646;81;26992;-49
2021/01/03 10:19:55;;;;;;;51.35;30.88;;;;;;;2.42;89.17;100383.17;1781063;77;34633;-53
2021/01/03 10:22:35;;;;;;;62.70;35.25;;;;;;;2.34;88.95;100379.08;1739299;81;25918;-55
2021/01/03 10:25:06;;;;;;;62.65;36.98;;;;;;;2.34;88.97;100376.41;1690629;83;26675;-57
2021/01/03 10:27:33;;;;;;;57.62;33.92;;;;;;;2.37;88.98;100381.78;1683278;84;26187;-59
2021/01/03 10:30:00;;;;;;;58.42;36.05;;;;;;;2.39;88.98;100378.33;1708907;83;25755;-61
2021/01/03 10:32:26;;;;;;;61.28;36.45;;;;;;;2.42;89.03;100381.30;1707630;83;25826;-59
2021/01/03 10:34:53;;;;;;;62.05;35.20;;;;;;;2.46;89.18;100377.59;1717767;83;26493;-57
2021/01/03 10:37:20;;;;;;;59.65;36.13;;;;;;;2.49;89.09;100381.63;1721000;83;25982;-52
2021/01/03 10:39:47;;;;;;;63.50;35.60;;;;;;;2.52;89.08;100383.27;1720292;83;25766;-57
2021/01/03 10:42:15;;;;;;;65.97;37.00;;;;;;;2.56;88.99;100386.23;1721145;83;25692;-57
2021/01/03 10:44:41;;;;;;;58.65;34.55;;;;;;;2.59;89.07;100383.86;1718696;83;25767;-57
2021/01/03 10:47:08;;;;;;;76.92;41.80;;;;;;;2.60;88.82;100391.33;1710670;83;26184;-57
2021/01/03 10:49:35;;;;;;;61.68;35.85;;;;;;;2.60;88.78;100394.00;1705960;81;28518;-57
2021/01/03 10:52:04;;;;;;;64.07;35.90;;;;;;;2.61;88.82;100386.28;1634784;87;25896;-58
2021/01/03 10:54:31;;;;;;;;;;;;;;;2.64;88.90;100384.95;1637216;87;26523;-56
2021/01/03 10:56:58;;;;;;;59.08;33.92;;;;;;;2.68;89.05;100375.39;1634991;87;26055;-57
2021/01/03 10:59:26;;;;;;;66.15;37.45;;;;;;;2.70;89.09;100374.60;1635127;87;25849;-57
2021/01/03 11:01:54;;;;;;;60.95;36.15;;;;;;;2.74;89.09;100362.34;1634958;87;26500;-59
2021/01/03 11:04:23;;;;;;;62.20;35.52;;;;;;;2.77;88.96;100363.97;1634375;87;25773;-52
2021/01/03 11:06:53;;;;;;;65.15;35.68;;;;;;;2.79;88.72;100354.36;1634839;87;25793;-60
2021/01/03 11:09:28;;;;;;;;;;;;;;;2.78;88.44;100356.77;1637122;87;25897;-52
2021/01/03 11:12:05;;;;;;;64.53;35.28;;;;;;;2.78;88.56;100352.77;1634994;87;26011;-58
2021/01/03 11:14:32;;;;;;;56.60;33.60;;;;;;;2.80;88.60;100350.10;1634985;87;27256;-51
2021/01/03 11:16:59;;;;;;;61.80;34.95;;;;;;;2.83;88.68;100346.13;1634653;87;25777;-57
2021/01/03 11:19:26;;;;;;;59.05;35.60;;;;;;;2.86;88.70;100340.28;1634383;87;25525;-49
2021/01/03 11:22:01;;;;;;;65.75;34.18;;;;;;;2.88;88.54;100350.17;1599577;88;26416;-56
2021/01/03 11:24:28;;;;;;;58.05;33.25;;;;;;;2.89;88.50;100351.77;1599067;88;25649;-56
2021/01/03 11:26:55;;;;;;;63.25;35.05;;;;;;;2.88;88.21;100357.36;1599050;88;26416;-58
2021/01/03 11:29:26;;;;;;;62.88;34.63;;;;;;;2.88;88.38;100358.19;1635470;86;25860;-58
2021/01/03 11:31:56;;;;;;;60.90;33.50;;;;;;;2.90;88.35;100355.27;1635198;86;26261;-58
2021/01/03 11:34:32;;;;;;;57.85;33.67;;;;;;;2.93;88.18;100352.09;1885165;75;34294;-56
2021/01/03 11:37:07;;;;;;;53.50;33.53;;;;;;;2.87;88.29;100360.58;1855874;76;26188;-54
2021/01/03 11:39:34;;;;;;;58.70;33.75;;;;;;;2.87;88.10;100350.42;1855719;77;26753;-58
2021/01/03 11:42:05;;;;;;;55.17;32.88;;;;;;;2.84;87.97;100345.59;1855771;77;25734;-52
2021/01/03 11:44:32;;;;;;;58.20;32.90;;;;;;;2.83;87.98;100349.31;1855662;76;25756;-56
2021/01/03 11:47:06;;;;;;;58.87;32.40;;;;;;;2.84;88.08;100357.61;1855729;76;25673;-58
2021/01/03 11:49:33;;;;;;;55.10;33.02;;;;;;;2.84;88.05;100362.95;1853881;77;25811;-49
2021/01/03 11:52:03;;;;;;;52.80;31.80;;;;;;;2.80;87.88;100363.46;1789071;80;27194;-50
2021/01/03 11:54:30;;;;;;;53.87;32.85;;;;;;;2.80;88.00;100362.66;1789263;80;25756;-52